Time;durP1;ratioP1;P1;durP2;ratioP2;P2;SDS_P1;SDS_P2;PMS_P1;PMS_P2;Temp;Humidity;BMP_temperature;BMP_pressure;BME280_temperature;BME280_humidity;BME280_pressure;Samples;Min_cycle;Max_cycle;Signal;HPM_P1;HPM_P2
2021/12/23 00:02:19;;;;;;;29.67;16.37;;;;;;;8.47;79.72;101568.22;5077565;28;20191;-65
2021/12/23 00:04:46;;;;;;;33.17;21.70;;;;;;;4.28;63.67;101578.25;5080370;28;20173;-68
2021/12/23 00:07:11;;;;;;;31.70;21.60;;;;;;;0.16;70.70;101596.88;5081355;28;20168;-68
2021/12/23 00:12:15;;;;;;;34.00;20.80;;;;;;;-0.32;74.62;101574.91;5069248;28;20177;-69
2021/12/23 00:14:40;;;;;;;41.97;23.67;;;;;;;-0.65;76.07;101561.59;5058055;28;20416;-66
2021/12/23 00:17:19;;;;;;;40.55;27.58;;;;;;;-0.50;76.01;101557.53;5056228;28;20670;-65
2021/12/23 00:23:20;;;;;;;45.07;23.13;;;;;;;-0.99;77.35;101564.38;5058517;28;20171;-65
2021/12/23 00:25:18;;;;;;;44.97;23.83;;;;;;;-1.30;78.50;101557.13;5062376;28;20411;-65
2021/12/23 00:27:44;;;;;;;38.30;22.70;;;;;;;-1.27;77.93;101548.00;5062315;28;20416;-66
2021/12/23 00:30:09;;;;;;;41.30;23.30;;;;;;;-1.14;78.36;101531.81;5062167;28;20260;-66
2021/12/23 00:32:35;;;;;;;42.57;23.00;;;;;;;-1.02;77.23;101531.78;5061464;28;20239;-66
2021/12/23 00:35:01;;;;;;;42.43;22.17;;;;;;;-1.05;77.09;101526.47;5062366;28;20196;-65
2021/12/23 00:37:26;;;;;;;33.90;19.10;;;;;;;-1.08;77.65;101514.34;5062184;28;20531;-65
2021/12/23 00:39:52;;;;;;;36.03;23.40;;;;;;;-0.90;77.24;101519.81;5062079;28;20173;-65
2021/12/23 00:42:17;;;;;;;44.73;24.80;;;;;;;-0.94;77.79;101517.84;5061937;28;20161;-65
2021/12/23 00:44:47;;;;;;;37.00;22.07;;;;;;;-1.30;78.26;101524.78;5060998;28;20415;-65
2021/12/23 00:47:13;;;;;;;34.97;19.63;;;;;;;-1.49;78.31;101520.00;5061765;28;20165;-69
2021/12/23 00:49:38;;;;;;;39.30;22.23;;;;;;;-1.40;78.81;101512.09;5062164;28;20739;-65
2021/12/23 00:52:06;;;;;;;43.80;22.97;;;;;;;-1.10;77.98;101497.09;5061466;28;20229;-65
2021/12/23 00:54:31;;;;;;;39.57;22.60;;;;;;;-1.38;78.64;101496.09;5061169;28;20257;-68
2021/12/23 00:56:57;;;;;;;36.13;20.57;;;;;;;-1.33;78.41;101483.59;5062247;28;20411;-69
2021/12/23 00:59:22;;;;;;;41.87;22.70;;;;;;;-1.49;79.16;101480.75;5061443;28;20173;-68
2021/12/23 01:01:48;;;;;;;35.73;21.53;;;;;;;-1.47;78.47;101492.00;5064690;28;20212;-68
2021/12/23 01:04:13;;;;;;;36.13;20.07;;;;;;;-1.33;78.12;101475.06;5064862;28;20162;-68
2021/12/23 01:06:38;;;;;;;41.63;22.37;;;;;;;-1.40;78.89;101460.94;5061610;28;20177;-66
2021/12/23 01:09:04;;;;;;;41.27;23.70;;;;;;;-1.32;78.13;101452.13;5061434;28;20456;-68
2021/12/23 01:11:29;;;;;;;35.20;21.60;;;;;;;-1.31;77.80;101447.88;5064247;28;20180;-66
2021/12/23 01:14:13;;;;;;;39.43;23.20;;;;;;;-0.88;76.97;101455.94;5081141;28;20195;-66
2021/12/23 01:19:22;;;;;;;38.33;21.90;;;;;;;-1.24;78.32;101468.03;5081341;28;20423;-70
2021/12/23 01:21:47;;;;;;;35.60;20.77;;;;;;;-1.32;77.74;101471.72;5081090;28;20804;-70
2021/12/23 01:24:13;;;;;;;38.03;22.47;;;;;;;-1.00;76.87;101467.91;5080098;28;20181;-71
2021/12/23 01:26:38;;;;;;;33.37;19.43;;;;;;;-1.14;77.59;101472.09;5081065;28;20173;-70
2021/12/23 01:29:04;;;;;;;39.57;21.63;;;;;;;-0.96;77.20;101468.25;5080265;28;20169;-68
2021/12/23 01:31:31;;;;;;;39.30;22.67;;;;;;;-0.56;75.64;101476.00;5080236;28;20180;-68
2021/12/23 01:33:56;;;;;;;33.80;21.83;;;;;;;-0.61;74.57;101473.94;5079811;28;20680;-69
2021/12/23 01:36:24;;;;;;;38.40;21.77;;;;;;;-0.56;74.70;101473.44;5081005;28;20415;-68
2021/12/23 01:38:49;;;;;;;32.10;20.10;;;;;;;-0.69;74.84;101469.22;5080718;28;20507;-70
2021/12/23 01:41:15;;;;;;;38.67;19.67;;;;;;;-0.81;75.76;101465.81;5080693;28;20497;-67
2021/12/23 01:43:40;;;;;;;36.67;19.83;;;;;;;-0.55;74.82;101477.78;5080491;28;20230;-66
2021/12/23 01:46:06;;;;;;;34.20;20.43;;;;;;;-0.85;75.57;101461.28;5080372;28;20493;-68
2021/12/23 01:48:31;;;;;;;36.37;20.97;;;;;;;-0.70;75.32;101459.75;5080892;28;20179;-69
2021/12/23 01:50:57;;;;;;;32.37;20.43;;;;;;;-0.51;74.26;101443.91;5081019;28;20165;-69
2021/12/23 01:53:22;;;;;;;33.83;21.70;;;;;;;-0.35;74.41;101443.25;5079970;28;20282;-67
2021/12/23 01:55:48;;;;;;;34.60;20.37;;;;;;;-0.83;75.47;101431.53;5080202;28;20222;-69
2021/12/23 01:58:14;;;;;;;35.80;21.17;;;;;;;-0.53;75.37;101434.34;5080383;28;20188;-70
2021/12/23 02:00:43;;;;;;;35.27;19.33;;;;;;;-1.32;77.10;101434.22;5080172;28;20169;-69
2021/12/23 02:03:09;;;;;;;32.33;18.90;;;;;;;-0.63;74.81;101414.06;5079377;28;20407;-67
2021/12/23 02:05:34;;;;;;;33.87;20.53;;;;;;;-0.22;74.56;101413.28;5083060;28;20487;-68
2021/12/23 02:08:00;;;;;;;33.33;19.90;;;;;;;-0.60;74.68;101411.69;5085481;28;20425;-71
2021/12/23 02:10:27;;;;;;;29.60;18.77;;;;;;;-0.22;74.84;101406.50;5061207;28;20173;-68
2021/12/23 02:12:52;;;;;;;33.83;20.50;;;;;;;0.04;74.30;101407.28;5060461;28;20176;-68
2021/12/23 02:15:18;;;;;;;36.40;19.97;;;;;;;-0.27;74.75;101402.75;5060197;28;20412;-66
2021/12/23 02:17:45;;;;;;;31.70;19.10;;;;;;;-0.07;74.88;101404.03;5061058;28;20211;-67
2021/12/23 02:20:16;;;;;;;32.87;20.17;;;;;;;-0.14;72.14;101401.84;5061193;28;20435;-66
2021/12/23 02:22:42;;;;;;;29.73;19.40;;;;;;;-0.29;75.26;101406.00;5059875;28;20416;-66
2021/12/23 02:25:09;;;;;;;31.97;19.07;;;;;;;-0.09;73.76;101397.91;5059792;28;20416;-66
2021/12/23 02:27:35;;;;;;;34.03;21.03;;;;;;;-0.31;73.27;101393.09;5060662;28;20436;-67
2021/12/23 02:30:02;;;;;;;32.43;19.70;;;;;;;-0.17;73.17;101388.84;5059750;28;20456;-67
2021/12/23 02:32:27;;;;;;;32.27;17.83;;;;;;;-0.02;74.44;101382.13;5059973;28;20191;-67
2021/12/23 02:34:53;;;;;;;34.87;20.47;;;;;;;-0.26;74.42;101375.44;5063022;28;20680;-67
2021/12/23 02:37:18;;;;;;;34.43;20.97;;;;;;;-0.28;75.46;101372.81;5060527;28;20202;-66
2021/12/23 02:39:43;;;;;;;32.90;19.70;;;;;;;-0.41;73.60;101360.00;5061255;28;20177;-67
2021/12/23 02:42:09;;;;;;;34.93;19.53;;;;;;;-0.39;74.59;101359.31;5059291;28;20177;-67
2021/12/23 02:44:35;;;;;;;28.97;19.03;;;;;;;-0.29;74.16;101357.34;5058454;28;20197;-67
2021/12/23 02:47:00;;;;;;;29.67;18.80;;;;;;;-0.12;75.09;101361.84;5060649;28;20176;-67
2021/12/23 02:49:25;;;;;;;34.07;20.50;;;;;;;0.02;73.98;101354.13;5061838;28;20166;-67
2021/12/23 02:51:51;;;;;;;29.50;20.03;;;;;;;-0.21;72.94;101354.44;5061149;28;20225;-67
2021/12/23 02:54:17;;;;;;;29.47;19.03;;;;;;;-0.32;73.02;101357.16;5059518;28;20173;-67
2021/12/23 02:56:42;;;;;;;29.40;19.77;;;;;;;-0.33;72.73;101356.25;5059864;28;20173;-67
2021/12/23 02:59:07;;;;;;;29.13;19.67;;;;;;;-0.19;72.66;101354.53;5058945;28;20209;-67
2021/12/23 03:01:33;;;;;;;27.77;18.47;;;;;;;-0.07;71.92;101350.22;5059182;28;20177;-67
2021/12/23 03:03:59;;;;;;;29.83;19.40;;;;;;;-0.18;74.54;101340.94;5059456;28;20165;-67
2021/12/23 03:06:25;;;;;;;29.17;19.20;;;;;;;-0.09;72.17;101331.28;5058298;28;20264;-67
2021/12/23 03:08:56;;;;;;;30.23;19.17;;;;;;;0.20;72.84;101319.34;5059068;28;20412;-67
2021/12/23 03:11:24;;;;;;;28.40;18.30;;;;;;;0.17;72.84;101314.06;5059273;28;20641;-66
2021/12/23 03:13:49;;;;;;;28.43;18.53;;;;;;;-0.53;73.33;101308.84;5058681;28;20422;-66
2021/12/23 03:16:19;;;;;;;30.00;17.90;;;;;;;-0.15;73.07;101317.19;5058722;28;20431;-67
2021/12/23 03:18:44;;;;;;;30.10;18.93;;;;;;;-0.58;73.66;101318.81;5058664;28;20205;-66
2021/12/23 03:21:09;;;;;;;29.20;18.90;;;;;;;0.22;73.13;101302.41;5058900;28;20837;-66
2021/12/23 03:23:35;;;;;;;32.10;18.70;;;;;;;-0.23;72.39;101298.78;5058613;28;20532;-65
2021/12/23 03:26:01;;;;;;;32.43;19.17;;;;;;;0.32;72.37;101297.00;5059229;28;20158;-66
2021/12/23 03:28:26;;;;;;;27.03;17.50;;;;;;;-0.42;73.40;101287.41;5058204;28;20259;-65
2021/12/23 03:30:52;;;;;;;27.53;18.33;;;;;;;-0.43;74.23;101277.94;5058787;28;20416;-66
2021/12/23 03:33:17;;;;;;;27.10;18.33;;;;;;;-0.06;73.90;101272.50;5058378;28;20173;-66
2021/12/23 03:35:43;;;;;;;30.43;18.73;;;;;;;-0.04;73.37;101272.59;5058555;28;20551;-67
2021/12/23 03:38:08;;;;;;;30.67;18.13;;;;;;;-0.43;73.54;101274.50;5057984;28;20197;-69
2021/12/23 03:40:34;;;;;;;26.77;18.83;;;;;;;-0.73;73.45;101275.22;5059226;28;20185;-70
2021/12/23 03:42:59;;;;;;;27.60;18.20;;;;;;;-0.40;73.86;101262.75;5058290;28;20193;-67
2021/12/23 03:45:24;;;;;;;30.93;18.57;;;;;;;-0.30;73.50;101268.44;5058706;28;20188;-68
2021/12/23 03:47:50;;;;;;;25.77;18.40;;;;;;;-0.15;72.63;101248.00;5058864;28;20257;-71
2021/12/23 03:50:20;;;;;;;29.20;17.77;;;;;;;-0.31;73.57;101247.06;5058349;28;20201;-68
2021/12/23 03:52:46;;;;;;;29.33;18.03;;;;;;;-0.27;73.08;101248.13;5058025;28;20266;-67
2021/12/23 03:55:12;;;;;;;30.27;19.13;;;;;;;-0.26;72.90;101244.78;5059024;28;20412;-68
2021/12/23 03:57:38;;;;;;;31.37;19.00;;;;;;;-0.20;73.32;101234.91;5058403;28;20550;-68
2021/12/23 04:00:05;;;;;;;25.73;17.13;;;;;;;-0.21;72.95;101235.72;5058248;28;20875;-68
2021/12/23 04:02:31;;;;;;;29.90;19.20;;;;;;;0.08;71.92;101221.19;5058670;28;20558;-67
2021/12/23 04:04:56;;;;;;;29.50;18.07;;;;;;;0.03;72.79;101215.81;5058206;28;20415;-68
2021/12/23 04:07:22;;;;;;;28.97;17.57;;;;;;;-0.17;72.75;101222.28;5058091;28;20170;-70
2021/12/23 04:09:47;;;;;;;30.40;19.03;;;;;;;0.14;72.26;101213.88;5059738;28;20193;-71
2021/12/23 04:12:12;;;;;;;26.90;18.63;;;;;;;-0.29;72.58;101209.59;5058177;28;20182;-68
2021/12/23 04:14:37;;;;;;;32.77;17.67;;;;;;;-0.60;74.05;101201.72;5062049;28;20177;-71
2021/12/23 04:17:03;;;;;;;30.47;18.20;;;;;;;-0.35;73.48;101199.00;5072822;28;20181;-70
2021/12/23 04:19:31;;;;;;;25.37;17.20;;;;;;;-0.87;73.79;101196.63;5060017;28;20177;-70
2021/12/23 04:21:57;;;;;;;29.27;18.87;;;;;;;-0.43;74.27;101182.28;5061826;28;20557;-70
2021/12/23 04:24:22;;;;;;;34.30;19.30;;;;;;;-0.06;72.46;101189.63;5069511;28;20423;-70
2021/12/23 04:26:48;;;;;;;27.90;17.77;;;;;;;-0.32;73.08;101193.19;5064611;28;20193;-68
2021/12/23 04:29:13;;;;;;;25.17;16.90;;;;;;;-0.13;72.71;101188.38;5057091;28;20173;-74
2021/12/23 04:31:38;;;;;;;28.07;18.83;;;;;;;-0.08;72.38;101179.28;5065402;28;20177;-71
2021/12/23 04:34:04;;;;;;;28.90;18.17;;;;;;;-0.23;73.73;101189.50;5057997;28;20546;-69
2021/12/23 04:36:29;;;;;;;31.30;18.77;;;;;;;-0.41;74.46;101183.25;5057841;28;20197;-70
2021/12/23 04:38:55;;;;;;;26.90;17.83;;;;;;;-0.23;73.55;101176.69;5065138;28;20188;-69
2021/12/23 04:41:21;;;;;;;26.63;18.90;;;;;;;-0.35;73.05;101174.25;5077930;28;20176;-69
2021/12/23 04:43:47;;;;;;;28.53;17.40;;;;;;;-0.18;73.13;101166.69;5077640;28;20489;-70
2021/12/23 04:46:12;;;;;;;26.00;17.67;;;;;;;-0.30;73.33;101166.84;5078381;28;20805;-69
2021/12/23 04:48:38;;;;;;;28.53;18.57;;;;;;;-0.15;73.17;101154.06;5067246;28;20531;-71
2021/12/23 04:51:03;;;;;;;25.37;17.07;;;;;;;-0.07;72.76;101150.31;5077051;28;20519;-75
2021/12/23 04:53:29;;;;;;;27.57;17.70;;;;;;;-0.12;73.00;101135.41;5077726;28;20247;-66
2021/12/23 04:55:54;;;;;;;27.50;17.50;;;;;;;-0.06;72.44;101134.09;5077822;28;20200;-70
2021/12/23 04:58:20;;;;;;;27.97;18.00;;;;;;;-0.13;72.67;101129.44;5078005;28;20435;-67
2021/12/23 05:00:48;;;;;;;25.70;18.00;;;;;;;-0.04;72.56;101119.72;5077982;28;20203;-65
2021/12/23 05:03:15;;;;;;;25.70;17.10;;;;;;;-0.52;73.88;101118.56;5077361;28;20538;-64
2021/12/23 05:05:40;;;;;;;27.40;17.97;;;;;;;-0.10;72.62;101129.59;5077704;28;20874;-66
2021/12/23 05:08:06;;;;;;;23.73;17.60;;;;;;;-0.18;72.89;101124.03;5080293;28;20419;-65
2021/12/23 05:10:32;;;;;;;26.10;18.50;;;;;;;-0.27;73.15;101109.78;5081299;28;20184;-65
2021/12/23 05:12:57;;;;;;;26.60;17.93;;;;;;;-0.51;73.34;101094.72;5080548;28;20426;-66
2021/12/23 05:15:22;;;;;;;28.83;18.30;;;;;;;-0.38;73.60;101102.34;5081693;28;20183;-66
2021/12/23 05:17:48;;;;;;;32.93;19.83;;;;;;;-0.04;72.61;101104.34;5080932;28;20254;-66
2021/12/23 05:20:15;;;;;;;24.57;17.70;;;;;;;-0.33;73.19;101087.25;5081172;28;20199;-66
2021/12/23 05:22:40;;;;;;;25.17;17.40;;;;;;;-0.12;72.75;101090.19;5087652;28;20212;-66
2021/12/23 05:25:07;;;;;;;28.50;17.90;;;;;;;-0.22;72.73;101078.53;5080769;28;20439;-65
2021/12/23 05:27:32;;;;;;;24.80;17.80;;;;;;;-0.17;73.51;101071.97;5080939;28;20169;-65
2021/12/23 05:29:58;;;;;;;28.03;17.03;;;;;;;-0.23;73.58;101046.00;5081268;28;20407;-67
2021/12/23 05:32:23;;;;;;;30.83;19.53;;;;;;;-0.40;73.94;101045.00;5080915;28;20212;-65
2021/12/23 05:34:49;;;;;;;26.47;17.40;;;;;;;-0.61;74.77;101049.78;5080728;28;20181;-65
2021/12/23 05:37:14;;;;;;;27.87;18.90;;;;;;;-0.42;74.54;101040.59;5081310;28;20167;-65
2021/12/23 05:39:39;;;;;;;29.70;18.50;;;;;;;-0.30;73.96;101035.31;5080797;28;20180;-65
2021/12/23 05:42:04;;;;;;;29.50;18.17;;;;;;;-0.23;73.72;101042.53;5080829;28;20226;-67
2021/12/23 05:44:30;;;;;;;26.43;17.43;;;;;;;-0.75;74.68;101032.69;5081593;28;20249;-65
2021/12/23 05:46:55;;;;;;;23.60;16.50;;;;;;;-0.59;75.00;101031.94;5080102;28;20461;-65
2021/12/23 05:49:21;;;;;;;26.03;18.57;;;;;;;-0.79;75.28;101040.97;5080473;28;20199;-66
2021/12/23 05:51:46;;;;;;;32.83;18.00;;;;;;;-0.44;74.73;101020.00;5080714;28;20228;-66
2021/12/23 05:54:11;;;;;;;29.17;18.77;;;;;;;-1.14;76.41;101006.44;5080169;28;20181;-65
2021/12/23 05:56:37;;;;;;;28.43;18.30;;;;;;;-1.02;75.54;101020.84;5080260;28;20157;-64
2021/12/23 05:59:02;;;;;;;29.03;17.37;;;;;;;-0.53;74.68;101004.09;5080388;28;20212;-65
2021/12/23 06:01:28;;;;;;;26.00;16.50;;;;;;;-1.41;76.06;101007.41;5080208;28;20180;-66
2021/12/23 06:03:53;;;;;;;28.53;18.00;;;;;;;-0.92;76.12;100993.25;5080600;28;20181;-65
2021/12/23 06:06:18;;;;;;;23.43;15.17;;;;;;;-1.53;78.23;100975.94;5080135;28;20188;-65
2021/12/23 06:08:44;;;;;;;26.73;17.80;;;;;;;-0.76;77.00;100970.38;5080496;28;20546;-66
2021/12/23 06:11:09;;;;;;;30.20;19.50;;;;;;;-0.84;76.06;100981.81;5080714;28;20191;-65
2021/12/23 06:13:35;;;;;;;32.70;19.70;;;;;;;-1.05;77.34;100959.28;5080128;28;20180;-66
2021/12/23 06:16:00;;;;;;;31.33;18.73;;;;;;;-0.84;76.41;100953.66;5080212;28;20180;-66
2021/12/23 06:18:25;;;;;;;30.37;19.77;;;;;;;-1.09;77.39;100959.00;5080451;28;20614;-66
2021/12/23 06:20:51;;;;;;;29.93;19.23;;;;;;;-0.74;76.13;100927.81;5079999;28;20172;-66
2021/12/23 06:23:16;;;;;;;27.73;18.60;;;;;;;-0.37;75.55;100921.34;5079740;28;20173;-66
2021/12/23 06:25:42;;;;;;;27.13;19.20;;;;;;;-0.87;76.55;100925.31;5080438;28;20165;-65
2021/12/23 06:28:07;;;;;;;33.27;19.37;;;;;;;-0.86;77.52;100915.19;5079958;28;20184;-65
2021/12/23 06:30:33;;;;;;;29.47;19.60;;;;;;;-0.60;76.57;100913.25;5080115;28;20176;-65
2021/12/23 06:32:58;;;;;;;29.13;19.53;;;;;;;-0.68;76.53;100923.06;5080148;28;20169;-65
2021/12/23 06:35:27;;;;;;;32.80;19.40;;;;;;;-1.15;76.65;100918.59;5079636;28;20191;-64
2021/12/23 06:37:53;;;;;;;37.90;21.00;;;;;;;-0.45;75.54;100941.41;5079624;28;20233;-65
2021/12/23 06:40:18;;;;;;;33.30;21.30;;;;;;;-0.39;74.59;100918.72;5079890;28;20457;-65
2021/12/23 06:42:44;;;;;;;29.80;19.87;;;;;;;-0.51;75.48;100924.00;5078856;28;20173;-65
2021/12/23 06:45:10;;;;;;;53.97;20.60;;;;;;;-0.83;75.64;100929.81;5079615;28;20171;-65
2021/12/23 06:47:36;;;;;;;30.30;19.87;;;;;;;-0.55;75.76;100923.75;5080148;28;20426;-65
2021/12/23 06:50:03;;;;;;;27.60;19.37;;;;;;;-0.83;75.75;100916.16;5083765;28;20172;-65
2021/12/23 06:52:28;;;;;;;30.40;19.30;;;;;;;-0.68;75.90;100910.25;5087724;28;20578;-65
2021/12/23 06:54:55;;;;;;;30.37;19.77;;;;;;;-0.80;76.76;100888.19;5081637;28;20442;-65
2021/12/23 06:57:21;;;;;;;32.87;20.03;;;;;;;-0.66;76.37;100874.50;5079658;28;20165;-66
2021/12/23 06:59:47;;;;;;;29.67;19.37;;;;;;;-0.41;75.86;100871.63;5079184;28;20411;-65
2021/12/23 07:02:12;;;;;;;30.40;18.73;;;;;;;-0.55;76.12;100862.31;5079712;28;20415;-66
2021/12/23 07:04:39;;;;;;;29.53;19.03;;;;;;;-0.73;76.43;100857.91;5078902;28;20169;-65
2021/12/23 07:07:09;;;;;;;26.57;19.47;;;;;;;-1.18;77.84;100851.88;5079099;28;20161;-65
2021/12/23 07:09:40;;;;;;;27.87;19.70;;;;;;;-0.87;76.89;100857.13;5079322;28;20420;-65
2021/12/23 07:12:06;;;;;;;30.87;19.77;;;;;;;-0.52;76.77;100854.78;5079097;28;20503;-64
2021/12/23 07:14:32;;;;;;;28.07;19.40;;;;;;;-0.63;76.86;100848.19;5078888;28;20732;-65
2021/12/23 07:16:57;;;;;;;27.03;17.57;;;;;;;-1.04;77.08;100855.25;5079320;28;20434;-65
2021/12/23 07:19:22;;;;;;;29.20;19.50;;;;;;;-0.58;75.87;100860.44;5078858;28;20472;-65
2021/12/23 07:21:48;;;;;;;30.90;19.17;;;;;;;-0.66;76.69;100859.13;5078961;28;20534;-65
2021/12/23 07:24:13;;;;;;;29.57;18.87;;;;;;;-0.42;75.50;100861.31;5079080;28;20168;-65
2021/12/23 07:26:38;;;;;;;28.90;19.40;;;;;;;-0.56;76.05;100866.53;5078711;28;20169;-65
2021/12/23 07:29:04;;;;;;;33.73;20.33;;;;;;;-0.36;75.59;100872.78;5078461;28;20180;-67
2021/12/23 07:31:29;;;;;;;26.43;19.37;;;;;;;0.11;74.34;100873.63;5077996;28;20204;-66
2021/12/23 07:33:54;;;;;;;31.50;19.77;;;;;;;-0.12;74.52;100879.16;5078448;28;20169;-65
2021/12/23 07:36:22;;;;;;;25.13;19.40;;;;;;;0.29;74.60;100888.22;5078620;28;20185;-66
2021/12/23 07:38:48;;;;;;;31.33;20.40;;;;;;;0.37;73.48;100904.91;5079138;28;20188;-66
2021/12/23 07:41:13;;;;;;;29.00;20.20;;;;;;;0.36;73.07;100909.97;5078634;28;20493;-67
2021/12/23 07:46:04;;;;;;;28.57;20.70;;;;;;;0.54;72.82;100917.75;5079017;28;20488;-66
2021/12/23 07:48:33;;;;;;;30.43;20.80;;;;;;;0.45;72.07;100915.59;5079039;28;20165;-66
2021/12/23 07:50:59;;;;;;;28.93;19.80;;;;;;;0.38;73.10;100906.69;5078437;28;20169;-66
2021/12/23 07:53:24;;;;;;;28.93;19.23;;;;;;;0.45;73.01;100913.03;5078416;28;20453;-66
2021/12/23 07:55:49;;;;;;;25.90;19.60;;;;;;;0.30;73.29;100895.13;5078244;28;20224;-65
2021/12/23 07:58:15;;;;;;;26.87;18.97;;;;;;;0.37;73.42;100904.03;5078226;28;20201;-65
2021/12/23 08:00:40;;;;;;;29.60;18.63;;;;;;;0.68;72.41;100906.53;5078772;28;20169;-66
2021/12/23 08:03:06;;;;;;;28.60;19.37;;;;;;;0.81;71.25;100901.25;5078113;28;20176;-66
2021/12/23 08:05:33;;;;;;;28.93;20.13;;;;;;;0.99;70.78;100905.56;5078027;28;20211;-66
2021/12/23 08:07:58;;;;;;;26.30;19.40;;;;;;;1.00;70.62;100903.06;5078488;28;20581;-66
2021/12/23 08:10:24;;;;;;;26.03;18.73;;;;;;;0.73;71.40;100888.81;5082135;28;20415;-66
2021/12/23 08:12:49;;;;;;;26.40;19.40;;;;;;;0.72;71.32;100879.34;5082581;28;20157;-66
2021/12/23 08:15:14;;;;;;;28.00;19.40;;;;;;;0.94;70.10;100881.34;5080526;28;20252;-66
2021/12/23 08:17:40;;;;;;;27.07;19.10;;;;;;;1.03;70.26;100868.06;5078042;28;20272;-66
2021/12/23 08:20:06;;;;;;;27.47;18.53;;;;;;;1.38;69.79;100863.78;5078085;28;20483;-66
2021/12/23 08:22:32;;;;;;;26.03;18.70;;;;;;;1.29;70.18;100862.53;5078159;28;20196;-66
2021/12/23 08:24:57;;;;;;;25.27;19.60;;;;;;;1.06;69.60;100865.69;5078153;28;20411;-67
2021/12/23 08:27:26;;;;;;;23.43;17.43;;;;;;;1.30;68.99;100863.41;5078007;28;20168;-66
2021/12/23 08:29:51;;;;;;;25.90;18.20;;;;;;;1.29;69.14;100854.84;5078449;28;20189;-66
2021/12/23 08:32:19;;;;;;;23.80;17.67;;;;;;;0.86;69.00;100845.00;5077101;28;20457;-66
2021/12/23 08:34:44;;;;;;;24.57;17.80;;;;;;;1.21;69.38;100837.31;5077817;28;20550;-66
2021/12/23 08:37:11;;;;;;;27.77;20.13;;;;;;;1.49;68.17;100837.81;5078182;28;20399;-66
2021/12/23 08:39:37;;;;;;;22.90;18.60;;;;;;;1.40;68.00;100839.09;5077802;28;20168;-66
2021/12/23 08:42:03;;;;;;;22.37;17.40;;;;;;;1.70;68.50;100825.94;5078347;28;20419;-66
2021/12/23 08:44:28;;;;;;;26.33;18.60;;;;;;;1.55;69.03;100826.97;5082244;28;20479;-66
2021/12/23 08:46:53;;;;;;;26.67;19.03;;;;;;;1.66;68.02;100830.94;5082027;28;20184;-67
2021/12/23 08:49:19;;;;;;;25.10;18.40;;;;;;;1.80;66.99;100817.81;5081794;28;20184;-65
2021/12/23 08:51:44;;;;;;;29.33;18.13;;;;;;;1.65;69.47;100813.75;5081541;28;20220;-66
2021/12/23 08:54:09;;;;;;;26.77;18.50;;;;;;;1.50;67.88;100820.72;5081276;28;20168;-65
2021/12/23 08:56:35;;;;;;;28.33;18.47;;;;;;;1.97;67.32;100810.91;5081198;28;20214;-66
2021/12/23 08:59:00;;;;;;;32.00;19.03;;;;;;;1.97;67.49;100795.47;5081092;28;20504;-66
2021/12/23 09:01:25;;;;;;;28.13;18.63;;;;;;;1.62;68.37;100811.00;5081049;28;20247;-66
2021/12/23 09:03:51;;;;;;;26.97;18.97;;;;;;;2.03;66.84;100818.91;5081391;28;20188;-66
2021/12/23 09:06:16;;;;;;;23.60;17.90;;;;;;;1.71;66.59;100804.56;5081186;28;20169;-66
2021/12/23 09:08:41;;;;;;;22.63;17.80;;;;;;;2.06;67.34;100806.19;5081097;28;20565;-66
2021/12/23 09:11:07;;;;;;;25.63;18.97;;;;;;;2.39;65.73;100797.31;5081350;28;20161;-66
2021/12/23 09:13:32;;;;;;;26.67;17.97;;;;;;;2.32;65.97;100779.03;5080866;28;20248;-66
2021/12/23 09:15:58;;;;;;;24.73;18.90;;;;;;;1.67;67.99;100795.81;5080899;28;20177;-66
2021/12/23 09:18:24;;;;;;;26.70;20.30;;;;;;;2.29;67.52;100783.19;5081070;28;20193;-65
2021/12/23 09:20:54;;;;;;;23.23;17.60;;;;;;;1.74;67.20;100785.00;5080963;28;20446;-66
2021/12/23 09:23:20;;;;;;;28.00;18.93;;;;;;;2.30;65.91;100775.53;5080730;28;20746;-67
2021/12/23 09:25:47;;;;;;;24.00;18.67;;;;;;;2.61;66.24;100766.56;5081220;28;20431;-65
2021/12/23 09:33:26;;;;;;;26.80;17.70;;;;;;;1.52;68.72;100760.03;5080672;28;20485;-65
2021/12/23 09:35:58;;;;;;;24.67;17.90;;;;;;;2.23;66.89;100740.03;5080563;28;20419;-68
2021/12/23 09:38:27;;;;;;;24.83;17.83;;;;;;;2.04;67.28;100740.94;5080003;28;20247;-66
2021/12/23 09:41:09;;;;;;;24.87;18.27;;;;;;;2.00;67.66;100757.03;5080033;28;20415;-67
2021/12/23 09:43:36;;;;;;;23.80;18.20;;;;;;;1.81;67.05;100747.63;5080713;28;20862;-66
2021/12/23 09:46:04;;;;;;;26.47;19.53;;;;;;;2.15;66.80;100738.81;5079747;28;20418;-67
2021/12/23 09:48:31;;;;;;;25.13;18.43;;;;;;;2.19;66.50;100735.56;5080530;28;20439;-68
2021/12/23 09:51:05;;;;;;;24.63;18.70;;;;;;;1.69;67.66;100737.66;5080474;28;20465;-69
2021/12/23 09:53:35;;;;;;;29.10;19.03;;;;;;;2.07;67.20;100727.31;5079045;28;20449;-66
2021/12/23 09:56:01;;;;;;;29.63;19.73;;;;;;;2.10;67.40;100712.06;5079721;28;20527;-66
2021/12/23 09:58:27;;;;;;;25.27;18.10;;;;;;;1.84;68.59;100686.94;5080647;28;20537;-65
2021/12/23 10:00:53;;;;;;;25.70;18.60;;;;;;;1.22;70.08;100687.53;5080029;28;20172;-65
2021/12/23 10:03:20;;;;;;;30.73;19.70;;;;;;;1.39;70.34;100670.34;5080081;28;20168;-66
2021/12/23 10:05:46;;;;;;;25.37;18.83;;;;;;;0.78;72.27;100675.25;5079891;28;20451;-65
2021/12/23 10:08:13;;;;;;;27.40;19.40;;;;;;;0.66;73.04;100665.28;5080103;28;20507;-66
2021/12/23 10:10:45;;;;;;;25.43;19.13;;;;;;;1.37;71.55;100665.16;5079558;28;20464;-65
2021/12/23 10:30:18;;;;;;;29.77;20.30;;;;;;;1.36;71.33;100591.47;5080195;28;20406;-66
2021/12/23 10:38:12;;;;;;;24.70;18.60;;;;;;;1.54;70.92;100596.53;5079576;28;20902;-65
2021/12/23 10:40:40;;;;;;;27.03;20.37;;;;;;;1.71;69.83;100601.53;5085179;28;20423;-65
2021/12/23 10:43:08;;;;;;;27.07;20.00;;;;;;;1.18;70.98;100594.97;5081232;28;20415;-65
2021/12/23 10:45:44;;;;;;;27.23;20.13;;;;;;;1.24;71.47;100580.66;5079279;28;20430;-65
2021/12/23 10:48:13;;;;;;;27.50;19.73;;;;;;;1.37;70.55;100587.19;5079644;28;20443;-67
2021/12/23 10:50:46;;;;;;;30.37;20.73;;;;;;;1.53;70.66;100561.38;5079497;28;20494;-65
2021/12/23 10:59:21;;;;;;;29.67;21.20;;;;;;;1.88;70.23;100549.16;5081429;28;20473;-67
2021/12/23 11:02:13;;;;;;;30.53;19.83;;;;;;;2.13;69.51;100550.16;5082978;28;20534;-66
2021/12/23 11:05:02;;;;;;;27.70;21.30;;;;;;;1.86;70.04;100548.22;5079435;28;20418;-66
2021/12/23 11:08:11;;;;;;;31.53;21.70;;;;;;;2.05;68.98;100541.25;5079290;28;20427;-65
2021/12/23 11:27:36;;;;;;;24.20;17.77;;;;;;;2.53;65.82;100526.91;5079132;28;20414;-65
2021/12/23 11:38:10;;;;;;;22.10;18.83;;;;;;;2.79;65.04;100503.84;5078013;28;20474;-66
2021/12/23 11:45:50;;;;;;;26.30;20.63;;;;;;;2.98;64.08;100482.22;5081234;28;20424;-67
2021/12/23 11:48:16;;;;;;;25.50;20.73;;;;;;;2.90;63.63;100486.22;5078262;28;20418;-66
2021/12/23 11:50:54;;;;;;;26.73;20.67;;;;;;;3.14;63.38;100475.94;5077550;28;20828;-66
2021/12/23 11:53:26;;;;;;;24.80;19.07;;;;;;;3.33;61.87;100461.13;5077941;28;20454;-66
2021/12/23 11:55:53;;;;;;;26.03;19.13;;;;;;;3.18;63.11;100470.06;5078319;28;20453;-65
2021/12/23 11:58:24;;;;;;;35.97;23.37;;;;;;;3.27;61.49;100461.75;5078277;28;20481;-66
2021/12/23 12:01:04;;;;;;;25.93;19.40;;;;;;;3.23;62.15;100443.59;5078576;28;20461;-65
2021/12/23 12:03:30;;;;;;;27.50;20.60;;;;;;;3.50;61.20;100453.94;5078519;28;20415;-65
2021/12/23 12:06:15;;;;;;;26.13;20.70;;;;;;;2.88;61.18;100438.94;5078724;28;20510;-65
2021/12/23 12:08:41;;;;;;;25.40;18.40;;;;;;;2.92;60.95;100435.63;5078158;28;20177;-66
2021/12/23 12:11:18;;;;;;;23.67;19.27;;;;;;;2.86;60.76;100428.56;5078232;28;20425;-65
2021/12/23 12:13:44;;;;;;;23.83;18.73;;;;;;;2.97;61.25;100410.94;5078160;28;20200;-66
2021/12/23 12:16:30;;;;;;;31.13;20.63;;;;;;;2.97;62.13;100423.81;5080247;28;20449;-66
2021/12/23 12:18:56;;;;;;;28.27;19.40;;;;;;;2.82;62.13;100410.41;5083198;28;20204;-65
2021/12/23 12:21:31;;;;;;;23.70;18.77;;;;;;;3.31;60.85;100401.78;5082344;28;20435;-66
2021/12/23 12:24:17;;;;;;;25.57;19.77;;;;;;;2.77;60.95;100396.47;5082242;28;20421;-66
2021/12/23 12:27:01;;;;;;;22.57;18.50;;;;;;;2.91;61.89;100394.38;5081280;28;20472;-65